Kuala Terengganu, Malaysia
Current Conditions -  °F | °C
As of 12:00 PM on Sunday 23 Nov 2014 (Local Time) from WMKN Reporting Station
Broken Clouds Broken Clouds  
Wind Chill: 88°   Ceiling: 26000
Heat Index: 102°   Visibility: 6mi
Dew Point: 79°   Wind: 5mph
Humidity: 75%   Direction: 50°NE
Pressure: 29.83"   Gusts: NA
Location:  5.33°N, 103.14°E
Report Text: WMKN 230400Z 05004KT 9999 FEW018 BKN260 31/26 Q1010
Loading
Personal Weather Stations






























Interactive Weather Map New forecast layout! Learn more

10-Day Weather Forecast

Advertisements
Track Severe Weather on mobile